Mc Call, Idaho
Current Conditions -  °F | °C
As of 4:56 AM on Saturday 20 Dec 2014 (Local Time) from KMYL Reporting Station
Light Snow Light Snow  
Wind Chill: 26°   Ceiling: 1400
Heat Index: 31°   Visibility: 1.7mi
Dew Point: 30°   Wind: 5mph
Humidity: 96%   Direction: 140°SE
Pressure: 29.96"   Gusts: NA
Location:  44.8918°N, 116.0789°W
Report Text: KMYL 201156Z AUTO 14004KT 1 3/4SM -SN BR FEW005 BKN014 OVC023 M01/M01 A2996 RMK AO2 P0000 T10061011
Loading
Personal Weather Stations






























Interactive Weather Map New forecast layout! Learn more

10-Day Weather Forecast

Advertisements
Track Severe Weather on mobile